sensor_id;sensor_type;location;lat;lon;timestamp;P1;durP1;ratioP1;P2;durP2;ratioP2
24715;SDS011;12822;50.124;8.678;2023-04-25T00:02:05;11.63;;;9.27;;
24715;SDS011;12822;50.124;8.678;2023-04-25T00:04:32;15.90;;;9.57;;
24715;SDS011;12822;50.124;8.678;2023-04-25T00:06:58;14.63;;;9.85;;
24715;SDS011;12822;50.124;8.678;2023-04-25T00:09:26;13.32;;;9.45;;
24715;SDS011;12822;50.124;8.678;2023-04-25T00:11:53;15.98;;;10.13;;
24715;SDS011;12822;50.124;8.678;2023-04-25T00:14:19;16.55;;;9.90;;
24715;SDS011;12822;50.124;8.678;2023-04-25T00:16:45;14.85;;;9.20;;
24715;SDS011;12822;50.124;8.678;2023-04-25T00:19:11;13.20;;;9.13;;
24715;SDS011;12822;50.124;8.678;2023-04-25T00:21:37;13.60;;;9.00;;
24715;SDS011;12822;50.124;8.678;2023-04-25T00:24:05;13.73;;;9.13;;
24715;SDS011;12822;50.124;8.678;2023-04-25T00:26:33;13.50;;;9.75;;
24715;SDS011;12822;50.124;8.678;2023-04-25T00:28:59;14.15;;;9.50;;
24715;SDS011;12822;50.124;8.678;2023-04-25T00:31:24;16.35;;;8.98;;
24715;SDS011;12822;50.124;8.678;2023-04-25T00:33:51;11.70;;;8.85;;
24715;SDS011;12822;50.124;8.678;2023-04-25T00:36:18;13.07;;;9.88;;
24715;SDS011;12822;50.124;8.678;2023-04-25T00:38:44;12.20;;;9.13;;
24715;SDS011;12822;50.124;8.678;2023-04-25T00:41:10;12.43;;;8.90;;
24715;SDS011;12822;50.124;8.678;2023-04-25T00:43:37;11.93;;;8.93;;
24715;SDS011;12822;50.124;8.678;2023-04-25T00:46:03;13.02;;;9.40;;
24715;SDS011;12822;50.124;8.678;2023-04-25T00:48:29;12.63;;;9.27;;
24715;SDS011;12822;50.124;8.678;2023-04-25T00:50:57;13.52;;;8.68;;
24715;SDS011;12822;50.124;8.678;2023-04-25T00:53:24;15.32;;;10.07;;
24715;SDS011;12822;50.124;8.678;2023-04-25T00:55:50;16.13;;;9.75;;
24715;SDS011;12822;50.124;8.678;2023-04-25T00:58:17;12.73;;;9.27;;
24715;SDS011;12822;50.124;8.678;2023-04-25T01:00:44;14.18;;;8.63;;
24715;SDS011;12822;50.124;8.678;2023-04-25T01:03:11;13.88;;;9.32;;
24715;SDS011;12822;50.124;8.678;2023-04-25T01:05:37;13.38;;;9.07;;
24715;SDS011;12822;50.124;8.678;2023-04-25T01:08:03;11.95;;;8.45;;
24715;SDS011;12822;50.124;8.678;2023-04-25T01:10:30;12.18;;;8.57;;
24715;SDS011;12822;50.124;8.678;2023-04-25T01:12:56;11.85;;;7.78;;
24715;SDS011;12822;50.124;8.678;2023-04-25T01:15:22;10.68;;;7.85;;
24715;SDS011;12822;50.124;8.678;2023-04-25T01:17:48;11.02;;;8.10;;
24715;SDS011;12822;50.124;8.678;2023-04-25T01:20:14;11.27;;;7.43;;
24715;SDS011;12822;50.124;8.678;2023-04-25T01:22:42;13.30;;;8.07;;
24715;SDS011;12822;50.124;8.678;2023-04-25T01:25:08;12.35;;;7.93;;
24715;SDS011;12822;50.124;8.678;2023-04-25T01:27:35;12.50;;;7.78;;
24715;SDS011;12822;50.124;8.678;2023-04-25T01:30:02;10.13;;;7.82;;
24715;SDS011;12822;50.124;8.678;2023-04-25T01:32:28;11.30;;;7.57;;
24715;SDS011;12822;50.124;8.678;2023-04-25T01:34:56;10.80;;;6.88;;
24715;SDS011;12822;50.124;8.678;2023-04-25T01:37:22;10.00;;;7.25;;
24715;SDS011;12822;50.124;8.678;2023-04-25T01:39:48;13.10;;;7.47;;
24715;SDS011;12822;50.124;8.678;2023-04-25T01:42:15;10.90;;;6.97;;
24715;SDS011;12822;50.124;8.678;2023-04-25T01:44:41;10.23;;;6.68;;
24715;SDS011;12822;50.124;8.678;2023-04-25T01:47:07;8.60;;;6.05;;
24715;SDS011;12822;50.124;8.678;2023-04-25T01:49:33;10.25;;;7.03;;
24715;SDS011;12822;50.124;8.678;2023-04-25T01:51:59;7.95;;;5.95;;
24715;SDS011;12822;50.124;8.678;2023-04-25T01:54:25;11.10;;;7.00;;
24715;SDS011;12822;50.124;8.678;2023-04-25T01:56:51;10.68;;;6.05;;
24715;SDS011;12822;50.124;8.678;2023-04-25T01:59:18;9.60;;;6.20;;
24715;SDS011;12822;50.124;8.678;2023-04-25T02:01:46;10.18;;;5.70;;
24715;SDS011;12822;50.124;8.678;2023-04-25T02:04:12;8.27;;;5.75;;
24715;SDS011;12822;50.124;8.678;2023-04-25T02:06:38;9.07;;;6.00;;
24715;SDS011;12822;50.124;8.678;2023-04-25T02:09:04;12.07;;;6.38;;
24715;SDS011;12822;50.124;8.678;2023-04-25T02:11:30;9.10;;;5.82;;
24715;SDS011;12822;50.124;8.678;2023-04-25T02:13:56;8.70;;;5.70;;
24715;SDS011;12822;50.124;8.678;2023-04-25T02:16:22;12.38;;;5.90;;
24715;SDS011;12822;50.124;8.678;2023-04-25T02:18:48;8.25;;;5.85;;
24715;SDS011;12822;50.124;8.678;2023-04-25T02:21:38;11.00;;;5.55;;
24715;SDS011;12822;50.124;8.678;2023-04-25T02:24:04;8.68;;;5.57;;
24715;SDS011;12822;50.124;8.678;2023-04-25T02:26:30;7.95;;;5.78;;
24715;SDS011;12822;50.124;8.678;2023-04-25T02:28:56;9.98;;;5.93;;
24715;SDS011;12822;50.124;8.678;2023-04-25T02:31:22;9.68;;;6.50;;
24715;SDS011;12822;50.124;8.678;2023-04-25T02:33:48;12.30;;;7.13;;
24715;SDS011;12822;50.124;8.678;2023-04-25T02:36:14;12.95;;;6.53;;
24715;SDS011;12822;50.124;8.678;2023-04-25T02:38:41;10.32;;;7.15;;
24715;SDS011;12822;50.124;8.678;2023-04-25T02:41:06;12.02;;;7.00;;
24715;SDS011;12822;50.124;8.678;2023-04-25T02:43:32;12.38;;;6.97;;
24715;SDS011;12822;50.124;8.678;2023-04-25T02:45:58;12.40;;;6.57;;
24715;SDS011;12822;50.124;8.678;2023-04-25T02:48:24;10.50;;;7.20;;
24715;SDS011;12822;50.124;8.678;2023-04-25T02:50:50;13.27;;;7.72;;
24715;SDS011;12822;50.124;8.678;2023-04-25T02:53:16;13.43;;;7.70;;
24715;SDS011;12822;50.124;8.678;2023-04-25T02:55:42;13.57;;;8.63;;
24715;SDS011;12822;50.124;8.678;2023-04-25T02:58:08;15.23;;;9.07;;
24715;SDS011;12822;50.124;8.678;2023-04-25T03:00:35;14.55;;;9.02;;
24715;SDS011;12822;50.124;8.678;2023-04-25T03:03:01;10.95;;;8.27;;
24715;SDS011;12822;50.124;8.678;2023-04-25T03:05:27;18.25;;;9.20;;
24715;SDS011;12822;50.124;8.678;2023-04-25T03:07:53;17.15;;;8.80;;
24715;SDS011;12822;50.124;8.678;2023-04-25T03:10:19;13.27;;;8.48;;
24715;SDS011;12822;50.124;8.678;2023-04-25T03:12:45;11.50;;;8.45;;
24715;SDS011;12822;50.124;8.678;2023-04-25T03:15:11;13.23;;;8.95;;
24715;SDS011;12822;50.124;8.678;2023-04-25T03:17:37;14.77;;;8.40;;
24715;SDS011;12822;50.124;8.678;2023-04-25T03:20:03;15.18;;;9.55;;
24715;SDS011;12822;50.124;8.678;2023-04-25T03:22:29;15.38;;;8.98;;
24715;SDS011;12822;50.124;8.678;2023-04-25T03:24:55;18.60;;;8.80;;
24715;SDS011;12822;50.124;8.678;2023-04-25T03:27:21;14.27;;;9.02;;
24715;SDS011;12822;50.124;8.678;2023-04-25T03:29:47;19.80;;;8.80;;
24715;SDS011;12822;50.124;8.678;2023-04-25T03:32:13;13.80;;;9.15;;
24715;SDS011;12822;50.124;8.678;2023-04-25T03:34:39;13.63;;;8.20;;
24715;SDS011;12822;50.124;8.678;2023-04-25T03:37:05;16.75;;;9.52;;
24715;SDS011;12822;50.124;8.678;2023-04-25T03:39:31;16.00;;;8.95;;
24715;SDS011;12822;50.124;8.678;2023-04-25T03:41:57;17.55;;;8.77;;
24715;SDS011;12822;50.124;8.678;2023-04-25T03:44:23;13.65;;;8.88;;
24715;SDS011;12822;50.124;8.678;2023-04-25T03:46:49;13.93;;;8.63;;
24715;SDS011;12822;50.124;8.678;2023-04-25T03:49:16;12.38;;;8.63;;
24715;SDS011;12822;50.124;8.678;2023-04-25T03:51:42;15.82;;;8.82;;
24715;SDS011;12822;50.124;8.678;2023-04-25T03:54:08;15.02;;;8.73;;
24715;SDS011;12822;50.124;8.678;2023-04-25T03:56:34;14.40;;;8.88;;
24715;SDS011;12822;50.124;8.678;2023-04-25T03:59:00;16.75;;;9.20;;
24715;SDS011;12822;50.124;8.678;2023-04-25T04:01:26;16.08;;;9.18;;
24715;SDS011;12822;50.124;8.678;2023-04-25T04:03:52;18.25;;;9.27;;
24715;SDS011;12822;50.124;8.678;2023-04-25T04:06:18;15.30;;;8.85;;
24715;SDS011;12822;50.124;8.678;2023-04-25T04:08:45;15.80;;;9.50;;
24715;SDS011;12822;50.124;8.678;2023-04-25T04:11:11;15.73;;;9.25;;
24715;SDS011;12822;50.124;8.678;2023-04-25T04:13:37;14.68;;;9.57;;
24715;SDS011;12822;50.124;8.678;2023-04-25T04:16:03;16.90;;;8.40;;
24715;SDS011;12822;50.124;8.678;2023-04-25T04:18:30;16.52;;;9.50;;
24715;SDS011;12822;50.124;8.678;2023-04-25T04:20:56;17.55;;;8.80;;
24715;SDS011;12822;50.124;8.678;2023-04-25T04:23:23;13.02;;;9.30;;
24715;SDS011;12822;50.124;8.678;2023-04-25T04:25:49;15.98;;;9.95;;
24715;SDS011;12822;50.124;8.678;2023-04-25T04:28:15;15.63;;;9.18;;
24715;SDS011;12822;50.124;8.678;2023-04-25T04:30:41;15.77;;;9.60;;
24715;SDS011;12822;50.124;8.678;2023-04-25T04:33:12;22.45;;;10.43;;
24715;SDS011;12822;50.124;8.678;2023-04-25T04:35:38;19.95;;;10.48;;
24715;SDS011;12822;50.124;8.678;2023-04-25T04:38:04;19.23;;;8.70;;
24715;SDS011;12822;50.124;8.678;2023-04-25T04:40:30;14.75;;;8.48;;
24715;SDS011;12822;50.124;8.678;2023-04-25T04:42:57;16.70;;;7.70;;
24715;SDS011;12822;50.124;8.678;2023-04-25T04:45:23;13.80;;;7.05;;
24715;SDS011;12822;50.124;8.678;2023-04-25T04:47:49;16.65;;;8.13;;
24715;SDS011;12822;50.124;8.678;2023-04-25T04:50:15;20.98;;;7.57;;
24715;SDS011;12822;50.124;8.678;2023-04-25T04:52:41;18.67;;;7.65;;
24715;SDS011;12822;50.124;8.678;2023-04-25T04:55:08;21.88;;;7.78;;
24715;SDS011;12822;50.124;8.678;2023-04-25T04:57:34;15.68;;;6.63;;
24715;SDS011;12822;50.124;8.678;2023-04-25T05:00:00;18.65;;;7.88;;
24715;SDS011;12822;50.124;8.678;2023-04-25T05:02:29;15.27;;;7.00;;
24715;SDS011;12822;50.124;8.678;2023-04-25T05:04:56;19.52;;;6.75;;
24715;SDS011;12822;50.124;8.678;2023-04-25T05:07:22;19.02;;;7.88;;
24715;SDS011;12822;50.124;8.678;2023-04-25T05:09:48;20.02;;;8.07;;
24715;SDS011;12822;50.124;8.678;2023-04-25T05:12:14;20.65;;;7.80;;
24715;SDS011;12822;50.124;8.678;2023-04-25T05:14:40;17.02;;;7.47;;
24715;SDS011;12822;50.124;8.678;2023-04-25T05:17:05;21.25;;;7.80;;
24715;SDS011;12822;50.124;8.678;2023-04-25T05:19:33;17.02;;;7.70;;
24715;SDS011;12822;50.124;8.678;2023-04-25T05:21:59;16.05;;;7.13;;
24715;SDS011;12822;50.124;8.678;2023-04-25T05:24:25;20.10;;;7.00;;
24715;SDS011;12822;50.124;8.678;2023-04-25T05:26:51;16.95;;;6.82;;
24715;SDS011;12822;50.124;8.678;2023-04-25T05:29:18;14.35;;;7.15;;
24715;SDS011;12822;50.124;8.678;2023-04-25T05:31:44;14.32;;;5.85;;
24715;SDS011;12822;50.124;8.678;2023-04-25T05:34:10;12.68;;;5.90;;
24715;SDS011;12822;50.124;8.678;2023-04-25T05:36:36;11.85;;;5.70;;
24715;SDS011;12822;50.124;8.678;2023-04-25T05:39:02;18.13;;;5.68;;
24715;SDS011;12822;50.124;8.678;2023-04-25T05:41:29;13.73;;;5.15;;
24715;SDS011;12822;50.124;8.678;2023-04-25T05:43:55;15.70;;;5.07;;
24715;SDS011;12822;50.124;8.678;2023-04-25T05:46:21;12.15;;;4.88;;
24715;SDS011;12822;50.124;8.678;2023-04-25T05:48:47;18.40;;;5.47;;
24715;SDS011;12822;50.124;8.678;2023-04-25T05:51:13;11.05;;;5.03;;
24715;SDS011;12822;50.124;8.678;2023-04-25T05:53:39;13.50;;;4.90;;
24715;SDS011;12822;50.124;8.678;2023-04-25T05:56:05;9.35;;;4.75;;
24715;SDS011;12822;50.124;8.678;2023-04-25T05:58:31;11.75;;;4.47;;
24715;SDS011;12822;50.124;8.678;2023-04-25T06:00:57;11.05;;;4.43;;
24715;SDS011;12822;50.124;8.678;2023-04-25T06:03:23;15.15;;;4.57;;
24715;SDS011;12822;50.124;8.678;2023-04-25T06:05:49;13.75;;;4.82;;
24715;SDS011;12822;50.124;8.678;2023-04-25T06:08:15;12.23;;;4.55;;
24715;SDS011;12822;50.124;8.678;2023-04-25T06:10:41;14.30;;;4.65;;
24715;SDS011;12822;50.124;8.678;2023-04-25T06:13:07;11.07;;;3.85;;
24715;SDS011;12822;50.124;8.678;2023-04-25T06:15:33;12.10;;;3.83;;
24715;SDS011;12822;50.124;8.678;2023-04-25T06:18:00;9.98;;;4.45;;
24715;SDS011;12822;50.124;8.678;2023-04-25T06:20:26;12.73;;;3.70;;
24715;SDS011;12822;50.124;8.678;2023-04-25T06:22:52;10.65;;;3.33;;
24715;SDS011;12822;50.124;8.678;2023-04-25T06:25:18;11.15;;;4.35;;
24715;SDS011;12822;50.124;8.678;2023-04-25T06:27:44;12.40;;;4.07;;
24715;SDS011;12822;50.124;8.678;2023-04-25T06:30:10;12.10;;;4.10;;
24715;SDS011;12822;50.124;8.678;2023-04-25T06:32:37;10.95;;;3.65;;
24715;SDS011;12822;50.124;8.678;2023-04-25T06:35:03;9.27;;;3.60;;
24715;SDS011;12822;50.124;8.678;2023-04-25T06:37:29;10.55;;;3.65;;
24715;SDS011;12822;50.124;8.678;2023-04-25T06:39:55;10.90;;;3.78;;
24715;SDS011;12822;50.124;8.678;2023-04-25T06:42:21;14.93;;;3.72;;
24715;SDS011;12822;50.124;8.678;2023-04-25T06:44:47;13.18;;;3.85;;
24715;SDS011;12822;50.124;8.678;2023-04-25T06:47:14;10.52;;;3.72;;
24715;SDS011;12822;50.124;8.678;2023-04-25T06:49:40;13.48;;;3.65;;
24715;SDS011;12822;50.124;8.678;2023-04-25T06:52:06;9.93;;;3.80;;
24715;SDS011;12822;50.124;8.678;2023-04-25T06:54:32;10.90;;;3.95;;
24715;SDS011;12822;50.124;8.678;2023-04-25T06:56:58;14.35;;;3.60;;
24715;SDS011;12822;50.124;8.678;2023-04-25T06:59:25;9.90;;;3.80;;
24715;SDS011;12822;50.124;8.678;2023-04-25T07:01:51;10.98;;;4.32;;
24715;SDS011;12822;50.124;8.678;2023-04-25T07:04:18;10.18;;;3.75;;
24715;SDS011;12822;50.124;8.678;2023-04-25T07:06:44;10.15;;;3.63;;
24715;SDS011;12822;50.124;8.678;2023-04-25T07:09:12;9.30;;;2.90;;
24715;SDS011;12822;50.124;8.678;2023-04-25T07:11:38;11.35;;;3.67;;
24715;SDS011;12822;50.124;8.678;2023-04-25T07:14:04;6.32;;;2.85;;
24715;SDS011;12822;50.124;8.678;2023-04-25T07:16:30;9.30;;;3.15;;
24715;SDS011;12822;50.124;8.678;2023-04-25T07:18:56;6.53;;;2.78;;
24715;SDS011;12822;50.124;8.678;2023-04-25T07:21:24;8.85;;;3.45;;
24715;SDS011;12822;50.124;8.678;2023-04-25T07:23:51;11.30;;;3.50;;
24715;SDS011;12822;50.124;8.678;2023-04-25T07:26:17;10.43;;;3.17;;
24715;SDS011;12822;50.124;8.678;2023-04-25T07:28:43;10.25;;;3.67;;
24715;SDS011;12822;50.124;8.678;2023-04-25T07:31:10;8.80;;;3.20;;
24715;SDS011;12822;50.124;8.678;2023-04-25T07:33:36;7.30;;;2.97;;
24715;SDS011;12822;50.124;8.678;2023-04-25T07:36:02;7.22;;;3.60;;
24715;SDS011;12822;50.124;8.678;2023-04-25T07:38:29;7.68;;;3.13;;
24715;SDS011;12822;50.124;8.678;2023-04-25T07:40:55;12.07;;;3.60;;
24715;SDS011;12822;50.124;8.678;2023-04-25T07:43:21;7.90;;;2.97;;
24715;SDS011;12822;50.124;8.678;2023-04-25T07:45:47;7.28;;;3.42;;
24715;SDS011;12822;50.124;8.678;2023-04-25T07:48:16;5.15;;;2.78;;
24715;SDS011;12822;50.124;8.678;2023-04-25T07:50:43;9.25;;;3.47;;
24715;SDS011;12822;50.124;8.678;2023-04-25T07:53:10;11.63;;;3.72;;
24715;SDS011;12822;50.124;8.678;2023-04-25T07:55:36;6.13;;;2.90;;
24715;SDS011;12822;50.124;8.678;2023-04-25T07:58:05;7.20;;;2.60;;
24715;SDS011;12822;50.124;8.678;2023-04-25T08:00:31;7.15;;;2.92;;
24715;SDS011;12822;50.124;8.678;2023-04-25T08:02:57;15.88;;;4.72;;
24715;SDS011;12822;50.124;8.678;2023-04-25T08:05:23;14.18;;;4.00;;
24715;SDS011;12822;50.124;8.678;2023-04-25T08:07:49;13.10;;;4.00;;
24715;SDS011;12822;50.124;8.678;2023-04-25T08:10:15;13.13;;;4.63;;
24715;SDS011;12822;50.124;8.678;2023-04-25T08:12:41;8.20;;;3.80;;
24715;SDS011;12822;50.124;8.678;2023-04-25T08:15:08;12.07;;;3.92;;
24715;SDS011;12822;50.124;8.678;2023-04-25T08:17:34;5.60;;;3.47;;
24715;SDS011;12822;50.124;8.678;2023-04-25T08:20:00;8.65;;;3.80;;
24715;SDS011;12822;50.124;8.678;2023-04-25T08:22:28;9.25;;;3.65;;
24715;SDS011;12822;50.124;8.678;2023-04-25T08:24:54;9.75;;;3.20;;
24715;SDS011;12822;50.124;8.678;2023-04-25T08:27:20;5.80;;;3.05;;
24715;SDS011;12822;50.124;8.678;2023-04-25T08:29:46;8.75;;;3.50;;
24715;SDS011;12822;50.124;8.678;2023-04-25T08:32:13;7.05;;;3.33;;
24715;SDS011;12822;50.124;8.678;2023-04-25T08:34:39;7.32;;;3.95;;
24715;SDS011;12822;50.124;8.678;2023-04-25T08:37:07;7.03;;;3.40;;
24715;SDS011;12822;50.124;8.678;2023-04-25T08:39:34;8.52;;;3.20;;
24715;SDS011;12822;50.124;8.678;2023-04-25T08:42:00;6.07;;;3.25;;
24715;SDS011;12822;50.124;8.678;2023-04-25T08:44:28;6.20;;;3.90;;
24715;SDS011;12822;50.124;8.678;2023-04-25T08:46:55;6.10;;;3.17;;
24715;SDS011;12822;50.124;8.678;2023-04-25T08:49:22;10.15;;;3.17;;
24715;SDS011;12822;50.124;8.678;2023-04-25T08:51:48;9.07;;;3.42;;
24715;SDS011;12822;50.124;8.678;2023-04-25T08:54:16;6.50;;;3.38;;
24715;SDS011;12822;50.124;8.678;2023-04-25T08:56:45;8.40;;;3.10;;
24715;SDS011;12822;50.124;8.678;2023-04-25T08:59:13;8.38;;;3.05;;
24715;SDS011;12822;50.124;8.678;2023-04-25T09:01:39;7.72;;;2.97;;
24715;SDS011;12822;50.124;8.678;2023-04-25T09:04:05;5.22;;;2.90;;
24715;SDS011;12822;50.124;8.678;2023-04-25T09:06:31;9.25;;;2.88;;
24715;SDS011;12822;50.124;8.678;2023-04-25T09:09:06;7.38;;;2.83;;
24715;SDS011;12822;50.124;8.678;2023-04-25T09:11:33;5.03;;;2.55;;
24715;SDS011;12822;50.124;8.678;2023-04-25T09:21:57;4.63;;;2.35;;
24715;SDS011;12822;50.124;8.678;2023-04-25T09:24:30;5.55;;;3.08;;
24715;SDS011;12822;50.124;8.678;2023-04-25T09:26:56;6.05;;;2.58;;
24715;SDS011;12822;50.124;8.678;2023-04-25T09:29:36;4.97;;;2.70;;
24715;SDS011;12822;50.124;8.678;2023-04-25T09:32:16;5.22;;;2.72;;
24715;SDS011;12822;50.124;8.678;2023-04-25T09:34:43;8.18;;;3.03;;
24715;SDS011;12822;50.124;8.678;2023-04-25T09:37:10;4.43;;;2.40;;
24715;SDS011;12822;50.124;8.678;2023-04-25T09:39:39;5.97;;;2.65;;
24715;SDS011;12822;50.124;8.678;2023-04-25T09:42:05;5.28;;;2.30;;
24715;SDS011;12822;50.124;8.678;2023-04-25T09:44:31;5.68;;;2.55;;
24715;SDS011;12822;50.124;8.678;2023-04-25T09:46:57;4.32;;;2.40;;
24715;SDS011;12822;50.124;8.678;2023-04-25T09:49:24;6.82;;;2.33;;
24715;SDS011;12822;50.124;8.678;2023-04-25T09:51:59;4.85;;;2.25;;
24715;SDS011;12822;50.124;8.678;2023-04-25T09:54:25;7.65;;;2.38;;
24715;SDS011;12822;50.124;8.678;2023-04-25T09:56:52;4.65;;;2.40;;
24715;SDS011;12822;50.124;8.678;2023-04-25T09:59:21;10.00;;;2.72;;
24715;SDS011;12822;50.124;8.678;2023-04-25T10:01:48;8.07;;;2.50;;
24715;SDS011;12822;50.124;8.678;2023-04-25T10:04:23;7.50;;;2.40;;
24715;SDS011;12822;50.124;8.678;2023-04-25T10:06:51;5.82;;;2.63;;
24715;SDS011;12822;50.124;8.678;2023-04-25T10:09:21;6.47;;;2.78;;
24715;SDS011;12822;50.124;8.678;2023-04-25T10:11:50;6.50;;;2.63;;
24715;SDS011;12822;50.124;8.678;2023-04-25T10:14:16;7.50;;;3.30;;
24715;SDS011;12822;50.124;8.678;2023-04-25T10:16:43;5.57;;;2.25;;
24715;SDS011;12822;50.124;8.678;2023-04-25T10:19:09;7.00;;;2.80;;
24715;SDS011;12822;50.124;8.678;2023-04-25T10:21:36;9.02;;;3.13;;
24715;SDS011;12822;50.124;8.678;2023-04-25T10:24:06;8.07;;;3.17;;
24715;SDS011;12822;50.124;8.678;2023-04-25T10:26:32;5.47;;;3.17;;
24715;SDS011;12822;50.124;8.678;2023-04-25T10:28:59;6.38;;;3.30;;
24715;SDS011;12822;50.124;8.678;2023-04-25T10:31:26;6.18;;;3.25;;
24715;SDS011;12822;50.124;8.678;2023-04-25T10:33:52;6.15;;;3.38;;
24715;SDS011;12822;50.124;8.678;2023-04-25T10:36:20;17.60;;;4.03;;
24715;SDS011;12822;50.124;8.678;2023-04-25T10:38:47;7.32;;;4.07;;
24715;SDS011;12822;50.124;8.678;2023-04-25T10:41:15;7.82;;;3.72;;
24715;SDS011;12822;50.124;8.678;2023-04-25T10:43:43;8.90;;;3.60;;
24715;SDS011;12822;50.124;8.678;2023-04-25T10:48:46;7.95;;;3.80;;
24715;SDS011;12822;50.124;8.678;2023-04-25T10:53:45;6.68;;;4.15;;
24715;SDS011;12822;50.124;8.678;2023-04-25T10:56:21;10.50;;;4.13;;
24715;SDS011;12822;50.124;8.678;2023-04-25T10:58:48;5.97;;;3.25;;
24715;SDS011;12822;50.124;8.678;2023-04-25T11:01:15;6.53;;;3.72;;
24715;SDS011;12822;50.124;8.678;2023-04-25T11:03:42;9.23;;;3.65;;
24715;SDS011;12822;50.124;8.678;2023-04-25T11:06:29;7.18;;;3.13;;
24715;SDS011;12822;50.124;8.678;2023-04-25T11:08:56;12.18;;;3.90;;
24715;SDS011;12822;50.124;8.678;2023-04-25T11:11:23;6.60;;;3.67;;
24715;SDS011;12822;50.124;8.678;2023-04-25T11:13:49;7.10;;;3.10;;
24715;SDS011;12822;50.124;8.678;2023-04-25T11:16:16;6.55;;;3.20;;
24715;SDS011;12822;50.124;8.678;2023-04-25T11:18:42;9.55;;;3.42;;
24715;SDS011;12822;50.124;8.678;2023-04-25T11:21:09;4.28;;;2.72;;
24715;SDS011;12822;50.124;8.678;2023-04-25T11:23:35;10.93;;;3.15;;
24715;SDS011;12822;50.124;8.678;2023-04-25T11:26:02;6.80;;;2.95;;
24715;SDS011;12822;50.124;8.678;2023-04-25T11:28:28;7.82;;;3.00;;
24715;SDS011;12822;50.124;8.678;2023-04-25T11:30:55;9.23;;;3.13;;
24715;SDS011;12822;50.124;8.678;2023-04-25T11:33:24;8.38;;;3.03;;
24715;SDS011;12822;50.124;8.678;2023-04-25T11:35:53;5.72;;;2.55;;
24715;SDS011;12822;50.124;8.678;2023-04-25T11:38:20;5.50;;;2.25;;
24715;SDS011;12822;50.124;8.678;2023-04-25T11:40:50;5.95;;;2.28;;
24715;SDS011;12822;50.124;8.678;2023-04-25T11:43:16;5.72;;;2.28;;
24715;SDS011;12822;50.124;8.678;2023-04-25T11:45:45;6.32;;;2.70;;
24715;SDS011;12822;50.124;8.678;2023-04-25T11:48:12;6.60;;;2.45;;
24715;SDS011;12822;50.124;8.678;2023-04-25T11:50:39;5.93;;;2.47;;
24715;SDS011;12822;50.124;8.678;2023-04-25T11:53:05;7.78;;;2.47;;
24715;SDS011;12822;50.124;8.678;2023-04-25T11:55:32;8.88;;;2.80;;
24715;SDS011;12822;50.124;8.678;2023-04-25T11:57:59;8.90;;;2.80;;
24715;SDS011;12822;50.124;8.678;2023-04-25T12:00:27;7.45;;;2.55;;
24715;SDS011;12822;50.124;8.678;2023-04-25T12:02:53;6.22;;;2.33;;
24715;SDS011;12822;50.124;8.678;2023-04-25T12:05:23;5.93;;;2.80;;
24715;SDS011;12822;50.124;8.678;2023-04-25T12:07:49;6.88;;;2.97;;
24715;SDS011;12822;50.124;8.678;2023-04-25T12:10:16;8.25;;;3.50;;
24715;SDS011;12822;50.124;8.678;2023-04-25T12:12:44;8.40;;;2.70;;
24715;SDS011;12822;50.124;8.678;2023-04-25T12:17:51;13.43;;;3.30;;
24715;SDS011;12822;50.124;8.678;2023-04-25T12:20:18;11.25;;;3.13;;
24715;SDS011;12822;50.124;8.678;2023-04-25T12:22:53;7.15;;;3.00;;
24715;SDS011;12822;50.124;8.678;2023-04-25T12:31:03;9.25;;;2.55;;
24715;SDS011;12822;50.124;8.678;2023-04-25T12:33:30;14.85;;;3.45;;
24715;SDS011;12822;50.124;8.678;2023-04-25T12:35:57;43.42;;;4.50;;
24715;SDS011;12822;50.124;8.678;2023-04-25T12:38:24;22.45;;;4.35;;
24715;SDS011;12822;50.124;8.678;2023-04-25T12:40:51;11.55;;;3.10;;
24715;SDS011;12822;50.124;8.678;2023-04-25T12:43:17;17.42;;;3.47;;
24715;SDS011;12822;50.124;8.678;2023-04-25T12:45:44;30.08;;;4.15;;
24715;SDS011;12822;50.124;8.678;2023-04-25T12:48:10;13.57;;;3.40;;
24715;SDS011;12822;50.124;8.678;2023-04-25T12:50:36;13.10;;;3.65;;
24715;SDS011;12822;50.124;8.678;2023-04-25T12:53:02;131.20;;;8.88;;
24715;SDS011;12822;50.124;8.678;2023-04-25T12:55:28;89.80;;;6.82;;
24715;SDS011;12822;50.124;8.678;2023-04-25T12:57:55;24.83;;;4.13;;
24715;SDS011;12822;50.124;8.678;2023-04-25T13:00:21;11.80;;;2.70;;
24715;SDS011;12822;50.124;8.678;2023-04-25T13:02:47;145.30;;;9.63;;
24715;SDS011;12822;50.124;8.678;2023-04-25T13:05:13;238.88;;;16.35;;
24715;SDS011;12822;50.124;8.678;2023-04-25T13:07:39;56.35;;;5.10;;
24715;SDS011;12822;50.124;8.678;2023-04-25T13:10:06;14.75;;;3.08;;
24715;SDS011;12822;50.124;8.678;2023-04-25T13:12:32;71.90;;;6.05;;
24715;SDS011;12822;50.124;8.678;2023-04-25T13:14:58;117.85;;;9.32;;
24715;SDS011;12822;50.124;8.678;2023-04-25T13:17:24;47.85;;;4.65;;
24715;SDS011;12822;50.124;8.678;2023-04-25T13:19:50;40.55;;;4.53;;
24715;SDS011;12822;50.124;8.678;2023-04-25T13:22:16;163.23;;;10.27;;
24715;SDS011;12822;50.124;8.678;2023-04-25T13:24:45;32.85;;;3.47;;
24715;SDS011;12822;50.124;8.678;2023-04-25T13:27:11;68.88;;;5.80;;
24715;SDS011;12822;50.124;8.678;2023-04-25T13:29:37;23.33;;;4.13;;
24715;SDS011;12822;50.124;8.678;2023-04-25T13:32:05;213.93;;;14.52;;
24715;SDS011;12822;50.124;8.678;2023-04-25T13:34:31;20.77;;;3.33;;
24715;SDS011;12822;50.124;8.678;2023-04-25T13:36:57;20.30;;;3.95;;
24715;SDS011;12822;50.124;8.678;2023-04-25T13:39:23;30.67;;;4.30;;
24715;SDS011;12822;50.124;8.678;2023-04-25T13:41:50;10.70;;;3.30;;
24715;SDS011;12822;50.124;8.678;2023-04-25T13:44:16;7.65;;;2.60;;
24715;SDS011;12822;50.124;8.678;2023-04-25T13:46:42;43.63;;;4.97;;
24715;SDS011;12822;50.124;8.678;2023-04-25T13:49:08;13.00;;;2.78;;
24715;SDS011;12822;50.124;8.678;2023-04-25T13:51:34;13.27;;;3.08;;
24715;SDS011;12822;50.124;8.678;2023-04-25T13:54:00;22.40;;;3.83;;
24715;SDS011;12822;50.124;8.678;2023-04-25T13:56:26;13.57;;;3.35;;
24715;SDS011;12822;50.124;8.678;2023-04-25T13:58:52;11.52;;;2.95;;
24715;SDS011;12822;50.124;8.678;2023-04-25T14:01:18;14.90;;;2.90;;
24715;SDS011;12822;50.124;8.678;2023-04-25T14:03:46;10.57;;;2.90;;
24715;SDS011;12822;50.124;8.678;2023-04-25T14:06:12;8.13;;;3.05;;
24715;SDS011;12822;50.124;8.678;2023-04-25T14:08:38;19.20;;;3.67;;
24715;SDS011;12822;50.124;8.678;2023-04-25T14:11:05;17.25;;;2.85;;
24715;SDS011;12822;50.124;8.678;2023-04-25T14:13:31;7.07;;;2.42;;
24715;SDS011;12822;50.124;8.678;2023-04-25T14:15:57;11.13;;;2.55;;
24715;SDS011;12822;50.124;8.678;2023-04-25T14:18:23;7.18;;;2.60;;
24715;SDS011;12822;50.124;8.678;2023-04-25T14:20:49;9.52;;;2.30;;
24715;SDS011;12822;50.124;8.678;2023-04-25T14:23:16;9.68;;;2.72;;
24715;SDS011;12822;50.124;8.678;2023-04-25T14:25:42;9.48;;;2.28;;
24715;SDS011;12822;50.124;8.678;2023-04-25T14:28:09;8.25;;;2.13;;
24715;SDS011;12822;50.124;8.678;2023-04-25T14:30:35;9.73;;;2.65;;
24715;SDS011;12822;50.124;8.678;2023-04-25T14:33:01;8.13;;;2.20;;
24715;SDS011;12822;50.124;8.678;2023-04-25T14:35:28;9.07;;;2.70;;
24715;SDS011;12822;50.124;8.678;2023-04-25T14:37:54;7.47;;;2.30;;
24715;SDS011;12822;50.124;8.678;2023-04-25T14:40:20;9.43;;;1.90;;
24715;SDS011;12822;50.124;8.678;2023-04-25T14:42:48;10.50;;;2.50;;
24715;SDS011;12822;50.124;8.678;2023-04-25T14:45:16;8.10;;;2.25;;
24715;SDS011;12822;50.124;8.678;2023-04-25T14:47:42;7.40;;;2.10;;
24715;SDS011;12822;50.124;8.678;2023-04-25T14:50:09;5.13;;;1.83;;
24715;SDS011;12822;50.124;8.678;2023-04-25T14:52:35;7.57;;;1.80;;
24715;SDS011;12822;50.124;8.678;2023-04-25T14:55:01;7.20;;;2.30;;
24715;SDS011;12822;50.124;8.678;2023-04-25T14:57:30;7.57;;;2.20;;